createdAt,value
2023-02-19T00:01:58.937Z,8.18
2023-02-19T00:04:27.232Z,12.77
2023-02-19T00:06:57.103Z,6.43
2023-02-19T00:09:25.578Z,13.82
2023-02-19T00:11:53.844Z,10.82
2023-02-19T00:14:23.187Z,12.75
2023-02-19T00:16:52.008Z,11.10
2023-02-19T00:19:21.702Z,5.38
2023-02-19T00:21:52.553Z,11.10
2023-02-19T00:24:22.586Z,8.77
2023-02-19T00:26:51.152Z,13.15
2023-02-19T00:29:21.290Z,12.70
2023-02-19T00:31:50.393Z,20.20
2023-02-19T00:34:18.922Z,8.07
2023-02-19T00:36:47.239Z,11.05
2023-02-19T00:39:18.613Z,6.25
2023-02-19T00:41:48.679Z,8.75
2023-02-19T00:44:17.334Z,16.02
2023-02-19T00:46:47.408Z,7.95
2023-02-19T00:49:18.942Z,11.10
2023-02-19T00:51:47.722Z,8.95
2023-02-19T00:54:16.580Z,16.90
2023-02-19T00:56:48.434Z,10.40
2023-02-19T00:59:17.185Z,9.50
2023-02-19T01:01:45.802Z,11.75
2023-02-19T01:04:16.606Z,10.93
2023-02-19T01:06:45.093Z,16.85
2023-02-19T01:09:13.801Z,10.02
2023-02-19T01:11:42.195Z,4.88
2023-02-19T01:14:12.444Z,5.05
2023-02-19T01:16:40.807Z,12.70
2023-02-19T01:19:09.203Z,8.77
2023-02-19T01:21:38.026Z,9.00
2023-02-19T01:24:06.734Z,6.28
2023-02-19T01:26:35.274Z,10.77
2023-02-19T01:29:03.798Z,8.20
2023-02-19T01:31:34.378Z,10.15
2023-02-19T01:34:04.405Z,6.05
2023-02-19T01:36:35.382Z,6.32
2023-02-19T01:39:05.344Z,4.45
2023-02-19T01:41:35.898Z,9.98
2023-02-19T01:44:08.123Z,3.45
2023-02-19T01:46:38.714Z,9.60
2023-02-19T01:49:10.189Z,5.68
2023-02-19T01:51:41.676Z,2.85
2023-02-19T01:54:11.849Z,10.23
2023-02-19T01:56:41.276Z,10.00
2023-02-19T01:59:10.275Z,7.20
2023-02-19T02:01:41.028Z,4.85
2023-02-19T02:04:11.161Z,8.73
2023-02-19T02:06:43.985Z,11.18
2023-02-19T02:09:29.527Z,10.45
2023-02-19T02:11:57.914Z,7.50
2023-02-19T02:14:29.183Z,8.38
2023-02-19T02:17:02.187Z,2.90
2023-02-19T02:20:03.436Z,2.00
2023-02-19T02:22:36.570Z,2.33
2023-02-19T02:25:29.268Z,3.03
2023-02-19T02:28:07.485Z,10.32
2023-02-19T02:30:41.362Z,6.65
2023-02-19T02:33:23.578Z,8.02
2023-02-19T02:35:54.492Z,2.10
2023-02-19T02:38:27.641Z,6.97
2023-02-19T02:40:56.571Z,4.25
2023-02-19T02:43:25.151Z,5.38
2023-02-19T02:45:55.080Z,7.22
2023-02-19T02:48:37.041Z,8.30
2023-02-19T02:51:10.860Z,6.72
2023-02-19T02:54:00.656Z,5.22
2023-02-19T02:56:29.132Z,7.70
2023-02-19T02:58:58.547Z,4.80
2023-02-19T03:01:49.174Z,10.65
2023-02-19T03:04:22.985Z,4.72
2023-02-19T03:06:52.440Z,6.10
2023-02-19T03:09:23.696Z,8.73
2023-02-19T03:12:11.204Z,5.13
2023-02-19T03:15:00.226Z,9.40
2023-02-19T03:17:51.952Z,5.40
2023-02-19T03:20:23.018Z,5.72
2023-02-19T03:22:52.727Z,6.53
2023-02-19T03:25:40.348Z,6.28
2023-02-19T03:28:11.354Z,6.85
2023-02-19T03:30:42.725Z,3.63
2023-02-19T03:33:15.558Z,3.88
2023-02-19T03:35:45.855Z,7.38
2023-02-19T03:38:18.863Z,2.83
2023-02-19T03:40:54.361Z,5.85
2023-02-19T03:43:26.425Z,7.07
2023-02-19T03:45:58.550Z,9.05
2023-02-19T03:48:32.609Z,6.20
2023-02-19T03:51:07.989Z,6.72
2023-02-19T03:53:40.643Z,8.10
2023-02-19T03:56:12.075Z,6.68
2023-02-19T03:58:46.397Z,5.85
2023-02-19T04:01:18.030Z,6.20
2023-02-19T04:03:51.644Z,5.85
2023-02-19T04:06:24.104Z,6.40
2023-02-19T04:08:55.646Z,8.60
2023-02-19T04:11:25.086Z,5.40
2023-02-19T04:13:58.489Z,6.15
2023-02-19T04:16:29.593Z,4.43
2023-02-19T04:19:03.800Z,10.27
2023-02-19T04:21:33.039Z,7.13
2023-02-19T04:24:02.708Z,3.70
2023-02-19T04:26:31.863Z,5.78
2023-02-19T04:29:00.225Z,10.10
2023-02-19T04:31:29.936Z,5.20
2023-02-19T04:33:59.728Z,7.85
2023-02-19T04:36:28.004Z,4.35
2023-02-19T04:38:56.346Z,3.65
2023-02-19T04:41:24.948Z,4.63
2023-02-19T04:43:53.416Z,5.70
2023-02-19T04:46:21.863Z,6.53
2023-02-19T04:48:50.275Z,2.95
2023-02-19T04:51:19.968Z,3.40
2023-02-19T04:53:48.214Z,5.65
2023-02-19T04:56:17.914Z,4.75
2023-02-19T04:58:46.824Z,6.40
2023-02-19T05:01:15.590Z,6.18
2023-02-19T05:03:44.154Z,8.80
2023-02-19T05:06:14.435Z,6.35
2023-02-19T05:08:44.524Z,11.50
2023-02-19T05:11:13.988Z,4.30
2023-02-19T05:13:43.832Z,4.30
2023-02-19T05:16:16.212Z,7.60
2023-02-19T05:18:46.116Z,3.13
2023-02-19T05:21:14.982Z,7.10
2023-02-19T05:23:45.147Z,9.80
2023-02-19T05:26:17.170Z,1.63
2023-02-19T05:28:45.679Z,7.43
2023-02-19T05:31:14.774Z,5.50
2023-02-19T05:33:44.491Z,2.58
2023-02-19T05:36:14.788Z,5.00
2023-02-19T05:38:44.527Z,7.00
2023-02-19T05:41:15.421Z,9.35
2023-02-19T05:43:45.369Z,4.85
2023-02-19T05:46:16.755Z,4.57
2023-02-19T05:48:45.222Z,3.50
2023-02-19T05:51:14.846Z,3.50
2023-02-19T05:53:45.684Z,8.02
2023-02-19T05:56:26.434Z,9.95
2023-02-19T05:58:55.926Z,5.57
2023-02-19T06:01:27.789Z,7.88
2023-02-19T06:03:57.732Z,7.53
2023-02-19T06:06:27.212Z,10.73
2023-02-19T06:08:57.088Z,9.95
2023-02-19T06:11:25.908Z,13.30
2023-02-19T06:13:54.823Z,6.30
2023-02-19T06:16:23.266Z,3.55
2023-02-19T06:18:51.717Z,7.97
2023-02-19T06:21:20.691Z,7.72
2023-02-19T06:23:49.134Z,6.97
2023-02-19T06:26:20.450Z,5.60
2023-02-19T06:28:50.430Z,5.65
2023-02-19T06:31:19.357Z,5.93
2023-02-19T06:33:50.897Z,8.27
2023-02-19T06:36:21.410Z,7.60
2023-02-19T06:38:49.789Z,7.57
2023-02-19T06:41:19.959Z,3.40
2023-02-19T06:43:49.733Z,6.32
2023-02-19T06:46:18.679Z,3.53
2023-02-19T06:48:47.187Z,6.07
2023-02-19T06:51:18.781Z,7.28
2023-02-19T06:53:47.634Z,7.45
2023-02-19T06:56:26.050Z,6.18
2023-02-19T06:58:55.047Z,5.80
2023-02-19T07:01:23.729Z,5.65
2023-02-19T07:03:54.147Z,9.57
2023-02-19T07:06:23.096Z,9.00
2023-02-19T07:08:51.890Z,6.53
2023-02-19T07:11:20.381Z,5.57
2023-02-19T07:13:50.138Z,9.00
2023-02-19T07:16:18.985Z,6.15
2023-02-19T07:18:47.327Z,4.63
2023-02-19T07:21:16.709Z,10.80
2023-02-19T07:23:45.955Z,6.85
2023-02-19T07:26:15.574Z,7.18
2023-02-19T07:28:44.102Z,8.27
2023-02-19T07:31:14.677Z,10.20
2023-02-19T07:33:44.843Z,4.45
2023-02-19T07:36:13.555Z,6.90
2023-02-19T07:38:41.860Z,6.80
2023-02-19T07:41:11.184Z,8.52
2023-02-19T07:43:40.599Z,3.35
2023-02-19T07:46:11.191Z,7.78
2023-02-19T07:48:43.799Z,3.85
2023-02-19T07:51:14.270Z,7.15
2023-02-19T07:53:42.782Z,5.03
2023-02-19T07:56:12.557Z,7.45
2023-02-19T07:58:41.287Z,13.13
2023-02-19T08:01:11.371Z,10.27
2023-02-19T08:03:40.718Z,5.88
2023-02-19T08:06:11.359Z,7.88
2023-02-19T08:08:40.166Z,4.13
2023-02-19T08:11:26.229Z,7.88
2023-02-19T08:13:54.789Z,3.90
2023-02-19T08:16:40.832Z,11.50
2023-02-19T08:19:13.193Z,13.13
2023-02-19T08:21:41.437Z,9.38
2023-02-19T08:24:09.771Z,6.70
2023-02-19T08:26:38.376Z,9.25
2023-02-19T08:29:07.272Z,7.55
2023-02-19T08:31:36.235Z,8.82
2023-02-19T08:34:04.937Z,8.07
2023-02-19T08:36:34.645Z,6.50
2023-02-19T08:39:03.087Z,6.13
2023-02-19T08:41:31.504Z,8.63
2023-02-19T08:43:59.745Z,12.85
2023-02-19T08:46:29.562Z,3.78
2023-02-19T08:48:57.937Z,5.05
2023-02-19T08:51:26.832Z,5.20
2023-02-19T08:53:56.613Z,9.10
2023-02-19T08:56:24.954Z,11.60
2023-02-19T08:58:53.301Z,2.47
2023-02-19T09:01:21.670Z,7.55
2023-02-19T09:03:50.189Z,6.75
2023-02-19T09:06:20.188Z,8.10
2023-02-19T09:08:48.488Z,6.95
2023-02-19T09:11:19.015Z,7.25
2023-02-19T09:13:47.356Z,8.55
2023-02-19T09:16:15.670Z,7.40
2023-02-19T09:18:45.965Z,8.13
2023-02-19T09:21:14.364Z,5.85
2023-02-19T09:23:43.576Z,7.75
2023-02-19T09:26:14.142Z,11.50
2023-02-19T09:28:43.791Z,5.20
2023-02-19T09:31:14.632Z,7.18
2023-02-19T09:33:46.410Z,8.35
2023-02-19T09:36:15.744Z,8.68
2023-02-19T09:38:44.071Z,12.55
2023-02-19T09:41:19.144Z,2.70
2023-02-19T09:43:48.789Z,5.05
2023-02-19T09:46:25.738Z,4.45
2023-02-19T09:48:55.068Z,4.82
2023-02-19T09:51:23.682Z,7.93
2023-02-19T09:53:52.653Z,6.55
2023-02-19T09:56:21.253Z,8.25
2023-02-19T09:58:52.490Z,8.60
2023-02-19T10:01:20.974Z,11.48
2023-02-19T10:03:50.219Z,6.63
2023-02-19T10:06:21.996Z,10.25
2023-02-19T10:08:51.795Z,13.65
2023-02-19T10:11:21.010Z,9.35
2023-02-19T10:13:54.727Z,9.80
2023-02-19T10:16:26.990Z,6.10
2023-02-19T10:18:56.662Z,6.85
2023-02-19T10:21:27.328Z,6.55
2023-02-19T10:23:58.473Z,10.80
2023-02-19T10:26:27.706Z,10.35
2023-02-19T10:28:57.420Z,5.63
2023-02-19T10:31:27.023Z,14.10
2023-02-19T10:33:57.295Z,9.32
2023-02-19T10:36:31.654Z,10.70
2023-02-19T10:39:01.055Z,7.85
2023-02-19T10:41:30.540Z,11.35
2023-02-19T10:44:06.743Z,11.20
2023-02-19T10:46:38.367Z,9.98
2023-02-19T10:49:08.475Z,6.68
2023-02-19T10:51:40.028Z,8.13
2023-02-19T10:54:17.896Z,7.95
2023-02-19T10:56:46.312Z,5.25
2023-02-19T10:59:25.542Z,10.75
2023-02-19T11:01:58.858Z,7.15
2023-02-19T11:04:29.235Z,10.77
2023-02-19T11:06:58.719Z,8.18
2023-02-19T11:09:29.939Z,11.75
2023-02-19T11:11:59.903Z,4.38
2023-02-19T11:14:30.749Z,9.25
2023-02-19T11:17:00.461Z,6.43
2023-02-19T11:19:32.293Z,4.22
2023-02-19T11:22:01.339Z,6.68
2023-02-19T11:24:35.599Z,6.32
2023-02-19T11:27:06.190Z,7.50
2023-02-19T11:29:36.401Z,8.32
2023-02-19T11:32:28.212Z,6.72
2023-02-19T11:35:22.724Z,6.63
2023-02-19T11:37:59.332Z,6.65
2023-02-19T11:40:37.059Z,7.93
2023-02-19T11:43:12.098Z,6.53
2023-02-19T11:45:47.518Z,9.00
2023-02-19T11:48:36.263Z,5.10
2023-02-19T11:51:21.494Z,13.93
2023-02-19T11:53:56.200Z,6.22
2023-02-19T11:56:33.931Z,3.17
2023-02-19T11:59:05.140Z,6.78
2023-02-19T12:01:58.751Z,10.93
2023-02-19T12:04:48.916Z,8.30
2023-02-19T12:07:25.935Z,7.78
2023-02-19T12:10:04.987Z,13.25
2023-02-19T12:12:47.156Z,8.75
2023-02-19T12:15:31.455Z,9.38
2023-02-19T12:18:33.936Z,11.48
2023-02-19T12:21:13.481Z,6.82
2023-02-19T12:24:00.051Z,8.20
2023-02-19T12:26:31.256Z,12.60
2023-02-19T12:29:31.237Z,5.25
2023-02-19T12:32:27.131Z,10.45
2023-02-19T12:35:30.266Z,8.57
2023-02-19T12:38:07.424Z,9.30
2023-02-19T12:40:43.878Z,6.13
2023-02-19T12:43:16.524Z,8.00
2023-02-19T12:45:48.159Z,8.93
2023-02-19T12:48:22.250Z,10.30
2023-02-19T12:50:53.564Z,8.13
2023-02-19T12:53:34.702Z,10.80
2023-02-19T12:56:05.829Z,9.65
2023-02-19T12:58:39.967Z,10.05
2023-02-19T13:01:08.971Z,5.05
2023-02-19T13:03:41.951Z,8.20
2023-02-19T13:06:16.768Z,8.80
2023-02-19T13:09:04.994Z,9.73
2023-02-19T13:11:38.252Z,6.25
2023-02-19T13:14:15.203Z,10.55
2023-02-19T13:16:46.918Z,7.22
2023-02-19T13:19:15.430Z,8.77
2023-02-19T13:22:01.579Z,11.70
2023-02-19T13:24:35.207Z,6.82
2023-02-19T13:27:17.432Z,8.23
2023-02-19T13:29:56.999Z,9.13
2023-02-19T13:32:41.519Z,7.05
2023-02-19T13:35:23.615Z,9.18
2023-02-19T13:37:53.006Z,11.73
2023-02-19T13:40:28.964Z,11.85
2023-02-19T13:42:58.543Z,5.72
2023-02-19T13:45:33.324Z,9.27
2023-02-19T13:48:04.168Z,8.05
2023-02-19T13:50:34.503Z,5.90
2023-02-19T13:53:03.913Z,11.20
2023-02-19T13:55:54.145Z,9.70
2023-02-19T13:59:01.509Z,6.05
2023-02-19T14:02:13.032Z,10.45
2023-02-19T14:05:00.345Z,8.55
2023-02-19T14:07:52.800Z,12.70
2023-02-19T14:11:02.582Z,11.18
2023-02-19T14:14:06.922Z,10.13
2023-02-19T14:19:50.982Z,5.35
2023-02-19T14:23:05.059Z,5.65
2023-02-19T14:25:40.315Z,20.52
2023-02-19T14:28:17.111Z,11.70
2023-02-19T14:30:50.223Z,11.98
2023-02-19T14:33:20.204Z,12.52
2023-02-19T14:35:52.533Z,11.25
2023-02-19T14:38:23.963Z,13.27
2023-02-19T14:40:53.366Z,7.50
2023-02-19T14:43:23.545Z,8.57
2023-02-19T14:45:56.232Z,6.20
2023-02-19T14:48:28.149Z,8.65
2023-02-19T14:51:00.003Z,10.80
2023-02-19T14:53:30.677Z,10.65
2023-02-19T14:56:01.022Z,6.28
2023-02-19T14:58:33.176Z,7.35
2023-02-19T15:01:03.053Z,11.65
2023-02-19T15:03:35.812Z,11.80
2023-02-19T15:06:06.925Z,15.18
2023-02-19T15:08:39.962Z,7.30
2023-02-19T15:11:13.205Z,9.13
2023-02-19T15:13:46.012Z,7.32
2023-02-19T15:16:25.630Z,7.90
2023-02-19T15:18:55.332Z,13.23
2023-02-19T15:21:26.089Z,13.38
2023-02-19T15:23:55.716Z,12.85
2023-02-19T15:26:26.880Z,12.57
2023-02-19T15:29:00.426Z,8.13
2023-02-19T15:31:30.388Z,7.43
2023-02-19T15:33:58.915Z,15.23
2023-02-19T15:36:30.042Z,8.40
2023-02-19T15:38:59.902Z,9.88
2023-02-19T15:41:30.652Z,8.82
2023-02-19T15:44:12.288Z,11.75
2023-02-19T15:46:43.074Z,10.85
2023-02-19T15:49:16.583Z,10.77
2023-02-19T15:51:47.943Z,10.05
2023-02-19T15:54:19.468Z,9.43
2023-02-19T15:56:51.131Z,7.82
2023-02-19T15:59:24.547Z,10.35
2023-02-19T16:01:54.712Z,14.55
2023-02-19T16:04:23.245Z,7.45
2023-02-19T16:06:54.024Z,6.22
2023-02-19T16:09:24.040Z,15.07
2023-02-19T16:11:54.404Z,10.88
2023-02-19T16:14:30.698Z,14.55
2023-02-19T16:17:05.199Z,12.90
2023-02-19T16:19:38.170Z,10.90
2023-02-19T16:22:07.130Z,13.45
2023-02-19T16:24:37.478Z,10.73
2023-02-19T16:27:07.763Z,10.45
2023-02-19T16:29:36.363Z,9.57
2023-02-19T16:32:08.024Z,11.40
2023-02-19T16:34:43.964Z,14.95
2023-02-19T16:37:41.092Z,13.07
2023-02-19T16:41:02.670Z,7.60
2023-02-19T16:43:33.053Z,6.72
2023-02-19T16:46:01.523Z,16.30
2023-02-19T16:48:31.314Z,12.77
2023-02-19T16:50:59.995Z,13.80
2023-02-19T16:53:29.565Z,11.63
2023-02-19T16:55:57.908Z,19.98
2023-02-19T16:58:26.234Z,19.50
2023-02-19T17:00:54.582Z,11.50
2023-02-19T17:03:24.227Z,10.73
2023-02-19T17:05:54.671Z,6.13
2023-02-19T17:08:34.255Z,14.18
2023-02-19T17:11:03.899Z,12.95
2023-02-19T17:13:32.236Z,15.07
2023-02-19T17:16:00.896Z,10.50
2023-02-19T17:18:29.799Z,13.00
2023-02-19T17:21:02.893Z,17.92
2023-02-19T17:23:31.353Z,11.68
2023-02-19T17:25:59.695Z,12.85
2023-02-19T17:28:27.970Z,11.65
2023-02-19T17:30:56.404Z,8.18
2023-02-19T17:33:24.693Z,9.25
2023-02-19T17:35:53.586Z,10.63
2023-02-19T17:38:23.326Z,8.77
2023-02-19T17:40:51.700Z,8.88
2023-02-19T17:43:19.974Z,18.00
2023-02-19T17:45:48.913Z,9.82
2023-02-19T17:48:17.368Z,11.65
2023-02-19T17:50:45.789Z,8.52
2023-02-19T17:53:14.167Z,13.65
2023-02-19T17:55:43.946Z,11.23
2023-02-19T17:58:12.325Z,7.85
2023-02-19T18:00:40.738Z,7.85
2023-02-19T18:03:09.061Z,9.07
2023-02-19T18:05:37.409Z,7.18
2023-02-19T18:08:06.330Z,9.27
2023-02-19T18:10:34.717Z,6.53
2023-02-19T18:13:04.539Z,19.05
2023-02-19T18:15:32.979Z,10.15
2023-02-19T18:18:01.298Z,9.73
2023-02-19T18:20:31.645Z,13.15
2023-02-19T18:23:00.030Z,12.68
2023-02-19T18:25:28.490Z,13.60
2023-02-19T18:27:56.911Z,10.20
2023-02-19T18:30:28.702Z,12.50
2023-02-19T18:32:57.259Z,7.55
2023-02-19T18:35:25.522Z,16.63
2023-02-19T18:37:55.019Z,8.20
2023-02-19T18:40:25.993Z,14.63
2023-02-19T18:42:55.769Z,8.70
2023-02-19T18:45:24.408Z,11.63
2023-02-19T18:47:54.181Z,14.82
2023-02-19T18:50:22.705Z,32.35
2023-02-19T18:52:51.632Z,11.98
2023-02-19T18:55:20.250Z,14.05
2023-02-19T18:57:50.601Z,13.48
2023-02-19T19:00:22.882Z,7.30
2023-02-19T19:02:51.667Z,17.60
2023-02-19T19:05:23.357Z,12.65
2023-02-19T19:07:52.641Z,19.70
2023-02-19T19:10:21.424Z,9.13
2023-02-19T19:12:50.635Z,18.70
2023-02-19T19:15:19.610Z,20.67
2023-02-19T19:17:48.963Z,8.95
2023-02-19T19:20:18.788Z,12.57
2023-02-19T19:22:50.332Z,15.48
2023-02-19T19:25:18.869Z,17.35
2023-02-19T19:27:47.187Z,12.48
2023-02-19T19:30:16.117Z,16.60
2023-02-19T19:32:44.474Z,12.48
2023-02-19T19:35:12.833Z,8.68
2023-02-19T19:37:41.219Z,13.93
2023-02-19T19:40:12.336Z,6.15
2023-02-19T19:42:42.498Z,19.88
2023-02-19T19:45:12.607Z,8.02
2023-02-19T19:47:40.991Z,13.00
2023-02-19T19:50:09.932Z,8.10
2023-02-19T19:52:38.206Z,25.55
2023-02-19T19:55:07.446Z,16.13
2023-02-19T19:57:39.048Z,8.25
2023-02-19T20:00:09.783Z,13.05
2023-02-19T20:02:38.092Z,14.38
2023-02-19T20:05:07.274Z,14.23
2023-02-19T20:07:35.696Z,9.43
2023-02-19T20:10:05.551Z,16.85
2023-02-19T20:12:33.802Z,15.65
2023-02-19T20:15:03.777Z,25.95
2023-02-19T20:17:32.575Z,15.07
2023-02-19T20:20:00.939Z,20.27
2023-02-19T20:22:29.329Z,15.48
2023-02-19T20:24:57.696Z,19.90
2023-02-19T20:27:26.068Z,24.05
2023-02-19T20:29:54.472Z,18.40
2023-02-19T20:32:24.167Z,21.20
2023-02-19T20:34:52.533Z,24.88
2023-02-19T20:37:21.032Z,18.40
2023-02-19T20:39:49.287Z,12.90
2023-02-19T20:42:18.020Z,13.73
2023-02-19T20:44:46.573Z,18.67
2023-02-19T20:47:14.882Z,18.80
2023-02-19T20:49:47.373Z,15.55
2023-02-19T20:52:17.228Z,17.75
2023-02-19T20:54:47.423Z,15.85
2023-02-19T20:57:15.776Z,14.32
2023-02-19T20:59:44.399Z,16.83
2023-02-19T21:02:17.989Z,25.65
2023-02-19T21:04:48.164Z,20.20
2023-02-19T21:07:16.828Z,21.95
2023-02-19T21:09:45.293Z,22.23
2023-02-19T21:12:13.788Z,15.18
2023-02-19T21:14:42.173Z,20.02
2023-02-19T21:17:10.853Z,23.25
2023-02-19T21:19:39.098Z,30.20
2023-02-19T21:22:09.060Z,17.50
2023-02-19T21:24:37.468Z,13.73
2023-02-19T21:27:05.823Z,21.67
2023-02-19T21:29:34.157Z,21.20
2023-02-19T21:32:02.632Z,18.30
2023-02-19T21:34:31.322Z,22.83
2023-02-19T21:36:59.964Z,18.92
2023-02-19T21:39:31.500Z,24.40
2023-02-19T21:42:00.360Z,16.48
2023-02-19T21:44:28.686Z,20.02
2023-02-19T21:46:57.053Z,19.20
2023-02-19T21:49:25.379Z,20.50
2023-02-19T21:51:53.662Z,22.08
2023-02-19T21:54:24.833Z,28.15
2023-02-19T21:56:55.061Z,29.13
2023-02-19T21:59:23.756Z,21.25
2023-02-19T22:01:52.246Z,20.08
2023-02-19T22:04:22.291Z,21.90
2023-02-19T22:06:50.576Z,19.98
2023-02-19T22:09:18.979Z,22.45
2023-02-19T22:11:47.267Z,19.05
2023-02-19T22:14:16.985Z,18.38
2023-02-19T22:16:45.484Z,19.33
2023-02-19T22:19:14.269Z,17.55
2023-02-19T22:21:44.977Z,19.92
2023-02-19T22:24:17.884Z,20.23
2023-02-19T22:26:47.228Z,15.98
2023-02-19T22:29:17.148Z,18.15
2023-02-19T22:31:45.635Z,20.25
2023-02-19T22:34:15.646Z,13.95
2023-02-19T22:36:44.497Z,15.40
2023-02-19T22:39:18.915Z,16.98
2023-02-19T22:41:49.297Z,16.27
2023-02-19T22:44:19.654Z,17.67
2023-02-19T22:46:49.671Z,16.90
2023-02-19T22:49:18.061Z,20.10
2023-02-19T22:51:51.491Z,15.73
2023-02-19T22:54:21.935Z,15.50
2023-02-19T22:56:50.554Z,17.80
2023-02-19T22:59:20.449Z,17.95
2023-02-19T23:01:49.088Z,16.13
2023-02-19T23:04:17.535Z,15.48
2023-02-19T23:06:46.117Z,16.15
2023-02-19T23:09:17.444Z,16.98
2023-02-19T23:11:46.296Z,14.30
2023-02-19T23:14:16.850Z,19.33
2023-02-19T23:16:46.826Z,14.60
2023-02-19T23:19:16.295Z,16.25
2023-02-19T23:21:45.804Z,16.42
2023-02-19T23:24:14.798Z,17.75
2023-02-19T23:26:44.268Z,17.95
2023-02-19T23:29:13.322Z,13.18
2023-02-19T23:31:41.859Z,15.13
2023-02-19T23:34:11.600Z,12.77
2023-02-19T23:36:42.415Z,14.52
2023-02-19T23:39:11.768Z,15.93
2023-02-19T23:41:40.255Z,22.27
2023-02-19T23:44:08.581Z,19.98
2023-02-19T23:46:36.833Z,20.73
2023-02-19T23:49:05.259Z,17.50
2023-02-19T23:51:35.281Z,21.52
2023-02-19T23:54:03.588Z,18.13
2023-02-19T23:56:31.872Z,19.33
2023-02-19T23:59:00.660Z,13.88
